createdAt,value
2023-02-15T00:02:02.298Z,14.50
2023-02-15T00:04:47.344Z,12.77
2023-02-15T00:07:16.159Z,14.23
2023-02-15T00:09:42.840Z,13.03
2023-02-15T00:12:10.870Z,13.43
2023-02-15T00:14:37.586Z,14.13
2023-02-15T00:17:04.833Z,11.37
2023-02-15T00:19:31.712Z,13.67
2023-02-15T00:21:58.392Z,13.53
2023-02-15T00:24:25.142Z,11.10
2023-02-15T00:26:51.740Z,13.40
2023-02-15T00:29:19.689Z,11.20
2023-02-15T00:31:46.942Z,12.67
2023-02-15T00:34:25.081Z,12.50
2023-02-15T00:36:51.904Z,12.83
2023-02-15T00:39:19.117Z,12.17
2023-02-15T00:41:46.728Z,10.23
2023-02-15T00:44:14.515Z,11.90
2023-02-15T00:46:41.216Z,12.10
2023-02-15T00:49:07.935Z,11.60
2023-02-15T00:51:35.381Z,12.63
2023-02-15T00:54:02.005Z,12.47
2023-02-15T00:56:29.512Z,14.17
2023-02-15T00:58:56.253Z,13.93
2023-02-15T01:01:23.169Z,12.00
2023-02-15T01:03:50.166Z,13.57
2023-02-15T01:06:17.603Z,10.83
2023-02-15T01:08:45.768Z,13.30
2023-02-15T01:11:15.664Z,13.23
2023-02-15T01:13:42.746Z,13.23
2023-02-15T01:16:09.487Z,12.73
2023-02-15T01:18:36.521Z,13.63
2023-02-15T01:21:20.370Z,14.87
2023-02-15T01:23:47.667Z,14.60
2023-02-15T01:26:14.737Z,14.27
2023-02-15T01:28:41.718Z,14.07
2023-02-15T01:31:10.622Z,14.50
2023-02-15T01:33:37.745Z,13.20
2023-02-15T01:36:05.478Z,14.00
2023-02-15T01:38:32.298Z,14.43
2023-02-15T01:41:18.926Z,14.37
2023-02-15T01:43:48.357Z,14.73
2023-02-15T01:46:17.471Z,14.50
2023-02-15T01:48:49.496Z,16.13
2023-02-15T01:51:20.188Z,15.17
2023-02-15T01:54:16.395Z,14.60
2023-02-15T01:56:43.109Z,15.53
2023-02-15T01:59:13.397Z,15.20
2023-02-15T02:01:40.278Z,13.93
2023-02-15T02:04:27.001Z,15.53
2023-02-15T02:06:54.466Z,16.03
2023-02-15T02:09:21.100Z,17.33
2023-02-15T02:11:48.645Z,19.10
2023-02-15T02:14:15.837Z,16.77
2023-02-15T02:16:54.017Z,16.90
2023-02-15T02:19:32.855Z,17.33
2023-02-15T02:22:14.196Z,17.90
2023-02-15T02:24:59.439Z,19.23
2023-02-15T02:27:34.305Z,18.13
2023-02-15T02:30:26.002Z,18.40
2023-02-15T02:33:22.802Z,17.47
2023-02-15T02:36:21.829Z,18.73
2023-02-15T02:38:48.397Z,16.50
2023-02-15T02:41:36.522Z,16.23
2023-02-15T02:44:30.821Z,15.47
2023-02-15T02:47:05.757Z,17.87
2023-02-15T02:49:41.144Z,15.57
2023-02-15T02:52:46.534Z,16.73
2023-02-15T02:55:52.334Z,15.20
2023-02-15T02:58:26.393Z,15.83
2023-02-15T03:01:02.544Z,15.33
2023-02-15T03:03:33.656Z,14.83
2023-02-15T03:06:03.363Z,17.80
2023-02-15T03:08:37.696Z,17.07
2023-02-15T03:11:05.285Z,17.30
2023-02-15T03:13:32.804Z,17.87
2023-02-15T03:16:18.819Z,18.10
2023-02-15T03:18:53.854Z,18.93
2023-02-15T03:21:25.838Z,18.43
2023-02-15T03:23:56.983Z,20.10
2023-02-15T03:26:25.284Z,18.40
2023-02-15T03:28:54.909Z,18.80
2023-02-15T03:31:22.784Z,22.73
2023-02-15T03:34:00.647Z,20.03
2023-02-15T03:36:40.765Z,19.40
2023-02-15T03:39:38.436Z,22.23
2023-02-15T03:42:12.751Z,19.80
2023-02-15T03:45:05.013Z,22.27
2023-02-15T03:47:41.441Z,21.77
2023-02-15T03:50:37.791Z,21.17
2023-02-15T03:53:07.336Z,22.33
2023-02-15T03:55:35.153Z,22.77
2023-02-15T03:58:20.381Z,21.83
2023-02-15T04:01:33.881Z,24.90
2023-02-15T04:04:04.015Z,22.70
2023-02-15T04:06:30.609Z,22.13
2023-02-15T04:09:15.793Z,20.93
2023-02-15T04:11:42.352Z,21.07
2023-02-15T04:14:34.704Z,29.00
2023-02-15T04:17:01.316Z,23.80
2023-02-15T04:19:46.382Z,28.77
2023-02-15T04:22:31.305Z,23.33
2023-02-15T04:25:16.029Z,22.57
2023-02-15T04:27:46.029Z,21.47
2023-02-15T04:30:14.342Z,18.87
2023-02-15T04:32:41.036Z,22.80
2023-02-15T04:35:08.423Z,23.33
2023-02-15T04:37:35.181Z,61.57
2023-02-15T04:40:05.005Z,42.03
2023-02-15T04:42:31.666Z,27.47
2023-02-15T04:44:58.320Z,28.07
2023-02-15T04:47:25.198Z,27.03
2023-02-15T04:49:51.817Z,23.40
2023-02-15T04:52:18.808Z,37.83
2023-02-15T04:54:46.246Z,26.77
2023-02-15T04:57:13.413Z,45.03
2023-02-15T04:59:40.014Z,55.83
2023-02-15T05:02:06.951Z,79.53
2023-02-15T05:04:33.595Z,36.13
2023-02-15T05:07:00.212Z,36.77
2023-02-15T05:09:26.870Z,38.40
2023-02-15T05:11:53.520Z,76.47
2023-02-15T05:14:20.270Z,41.97
2023-02-15T05:16:46.966Z,41.83
2023-02-15T05:19:13.986Z,25.90
2023-02-15T05:21:40.665Z,22.10
2023-02-15T05:24:27.255Z,24.87
2023-02-15T05:27:12.343Z,33.70
2023-02-15T05:29:38.928Z,35.07
2023-02-15T05:32:05.688Z,40.80
2023-02-15T05:34:32.434Z,33.90
2023-02-15T05:36:59.105Z,35.37
2023-02-15T05:39:25.748Z,34.40
2023-02-15T05:41:52.350Z,52.73
2023-02-15T05:44:19.046Z,49.83
2023-02-15T05:46:45.688Z,38.17
2023-02-15T05:49:12.348Z,31.73
2023-02-15T05:51:38.977Z,51.00
2023-02-15T05:54:05.611Z,35.13
2023-02-15T05:56:32.236Z,31.77
2023-02-15T05:58:58.856Z,38.47
2023-02-15T06:01:25.688Z,33.73
2023-02-15T06:03:53.201Z,28.87
2023-02-15T06:06:19.931Z,24.73
2023-02-15T06:08:47.140Z,30.00
2023-02-15T06:11:13.696Z,51.77
2023-02-15T06:13:40.308Z,36.40
2023-02-15T06:16:07.736Z,27.43
2023-02-15T06:18:34.799Z,26.27
2023-02-15T06:21:01.426Z,23.70
2023-02-15T06:23:28.071Z,24.57
2023-02-15T06:25:54.701Z,32.53
2023-02-15T06:28:21.378Z,29.93
2023-02-15T06:30:48.169Z,30.13
2023-02-15T06:33:14.843Z,33.77
2023-02-15T06:35:41.474Z,30.50
2023-02-15T06:38:08.143Z,31.90
2023-02-15T06:40:40.901Z,32.84
2023-02-15T06:43:07.575Z,32.20
2023-02-15T06:45:34.187Z,30.00
2023-02-15T06:48:00.922Z,32.63
2023-02-15T06:50:27.556Z,30.50
2023-02-15T06:53:00.222Z,32.77
2023-02-15T06:55:26.994Z,21.03
2023-02-15T06:57:53.595Z,25.37
2023-02-15T07:00:20.453Z,25.43
2023-02-15T07:02:47.078Z,25.37
2023-02-15T07:05:13.915Z,22.17
2023-02-15T07:07:40.613Z,19.40
2023-02-15T07:10:07.801Z,14.43
2023-02-15T07:12:43.652Z,16.43
2023-02-15T07:15:12.237Z,14.73
2023-02-15T07:17:39.156Z,15.23
2023-02-15T07:20:08.965Z,13.03
2023-02-15T07:22:37.356Z,8.63
2023-02-15T07:25:09.047Z,13.07
2023-02-15T07:27:35.807Z,13.30
2023-02-15T07:30:11.792Z,15.10
2023-02-15T07:32:58.408Z,17.57
2023-02-15T07:35:25.651Z,13.40
2023-02-15T07:37:54.101Z,15.87
2023-02-15T07:40:23.434Z,13.03
2023-02-15T07:42:51.184Z,15.27
2023-02-15T07:45:18.928Z,13.87
2023-02-15T07:47:45.745Z,16.00
2023-02-15T07:50:12.402Z,17.30
2023-02-15T07:52:39.022Z,16.50
2023-02-15T07:55:06.164Z,14.17
2023-02-15T07:57:32.772Z,16.77
2023-02-15T07:59:59.430Z,16.47
2023-02-15T08:02:26.146Z,17.87
2023-02-15T08:04:52.797Z,14.83
2023-02-15T08:07:19.419Z,16.90
2023-02-15T08:09:46.025Z,18.43
2023-02-15T08:12:12.623Z,13.77
2023-02-15T08:14:39.300Z,14.70
2023-02-15T08:17:06.086Z,18.87
2023-02-15T08:19:33.635Z,18.40
2023-02-15T08:22:08.295Z,16.20
2023-02-15T08:24:38.049Z,18.00
2023-02-15T08:27:06.505Z,20.03
2023-02-15T08:29:34.425Z,17.63
2023-02-15T08:32:07.538Z,15.90
2023-02-15T08:34:40.368Z,18.00
2023-02-15T08:37:07.324Z,16.50
2023-02-15T08:39:34.063Z,19.97
2023-02-15T08:42:00.717Z,18.77
2023-02-15T08:44:27.391Z,17.00
2023-02-15T08:46:54.045Z,16.17
2023-02-15T08:49:22.125Z,13.20
2023-02-15T08:51:49.994Z,16.43
2023-02-15T08:54:21.837Z,18.07
2023-02-15T08:56:49.009Z,16.80
2023-02-15T08:59:24.441Z,16.23
2023-02-15T09:01:52.708Z,12.83
2023-02-15T09:04:20.386Z,13.73
2023-02-15T09:06:49.415Z,14.20
2023-02-15T09:09:17.690Z,15.47
2023-02-15T09:11:46.409Z,14.87
2023-02-15T09:14:15.481Z,13.63
2023-02-15T09:16:47.266Z,13.23
2023-02-15T09:19:14.334Z,12.60
2023-02-15T09:21:41.133Z,11.40
2023-02-15T09:24:10.433Z,12.60
2023-02-15T09:26:41.572Z,11.33
2023-02-15T09:29:08.739Z,10.67
2023-02-15T09:31:45.421Z,11.97
2023-02-15T09:34:14.456Z,10.60
2023-02-15T09:36:41.544Z,10.63
2023-02-15T09:39:13.657Z,10.90
2023-02-15T09:41:51.510Z,13.03
2023-02-15T09:44:55.707Z,13.80
2023-02-15T09:47:47.020Z,11.83
2023-02-15T09:50:37.124Z,12.37
2023-02-15T09:53:21.666Z,10.57
2023-02-15T09:56:11.243Z,9.03
2023-02-15T09:58:46.964Z,11.07
2023-02-15T10:01:36.210Z,10.90
2023-02-15T10:04:05.766Z,10.20
2023-02-15T10:06:32.421Z,10.50
2023-02-15T10:09:17.642Z,10.57
2023-02-15T10:12:04.779Z,10.20
2023-02-15T10:14:53.252Z,9.50
2023-02-15T10:17:22.759Z,10.27
2023-02-15T10:20:12.403Z,12.90
2023-02-15T10:22:45.161Z,9.17
2023-02-15T10:25:26.818Z,12.16
2023-02-15T10:27:53.391Z,11.27
2023-02-15T10:30:32.712Z,10.30
2023-02-15T10:33:05.100Z,10.63
2023-02-15T10:35:41.586Z,11.07
2023-02-15T10:38:11.794Z,9.70
2023-02-15T10:40:48.203Z,12.03
2023-02-15T10:43:25.199Z,9.63
2023-02-15T10:46:04.528Z,10.90
2023-02-15T10:48:55.049Z,10.77
2023-02-15T10:51:30.662Z,13.83
2023-02-15T10:54:21.998Z,16.97
2023-02-15T10:57:15.325Z,12.50
2023-02-15T11:00:00.665Z,11.17
2023-02-15T11:02:53.071Z,10.70
2023-02-15T11:05:27.883Z,10.23
2023-02-15T11:07:57.134Z,9.90
2023-02-15T11:10:35.788Z,11.97
2023-02-15T11:13:06.868Z,11.43
2023-02-15T11:15:37.827Z,11.90
2023-02-15T11:18:25.068Z,9.67
2023-02-15T11:20:54.989Z,10.90
2023-02-15T11:23:21.957Z,10.37
2023-02-15T11:26:00.997Z,11.57
2023-02-15T11:28:48.293Z,8.67
2023-02-15T11:31:22.107Z,10.80
2023-02-15T11:33:53.364Z,11.33
2023-02-15T11:36:23.790Z,11.07
2023-02-15T11:38:56.098Z,11.70
2023-02-15T11:41:26.172Z,11.97
2023-02-15T11:44:02.012Z,10.50
2023-02-15T11:46:29.853Z,10.40
2023-02-15T11:48:56.634Z,8.83
2023-02-15T11:54:09.766Z,8.67
2023-02-15T11:56:36.390Z,10.73
2023-02-15T11:59:08.381Z,10.97
2023-02-15T12:01:41.573Z,10.60
2023-02-15T12:04:36.044Z,8.93
2023-02-15T12:07:30.052Z,9.80
2023-02-15T12:10:18.921Z,8.53
2023-02-15T12:12:45.579Z,10.77
2023-02-15T12:15:14.202Z,9.60
2023-02-15T12:17:48.675Z,9.00
2023-02-15T12:20:15.261Z,8.43
2023-02-15T12:22:49.809Z,11.27
2023-02-15T12:25:38.988Z,10.27
2023-02-15T12:28:21.225Z,10.80
2023-02-15T12:30:47.973Z,8.37
2023-02-15T12:33:17.571Z,12.03
2023-02-15T12:35:45.281Z,10.77
2023-02-15T12:38:11.817Z,11.83
2023-02-15T12:40:39.441Z,9.03
2023-02-15T12:43:11.896Z,9.90
2023-02-15T12:45:39.179Z,10.50
2023-02-15T12:48:21.710Z,11.70
2023-02-15T12:50:55.413Z,10.70
2023-02-15T12:53:24.644Z,9.50
2023-02-15T12:55:56.074Z,10.40
2023-02-15T12:58:26.849Z,8.73
2023-02-15T13:01:04.902Z,10.50
2023-02-15T13:03:31.794Z,9.50
2023-02-15T13:05:59.303Z,9.50
2023-02-15T13:08:32.903Z,10.23
2023-02-15T13:11:04.163Z,9.83
2023-02-15T13:13:48.980Z,9.40
2023-02-15T13:16:16.221Z,9.83
2023-02-15T13:18:47.213Z,8.70
2023-02-15T13:21:20.472Z,10.10
2023-02-15T13:23:57.984Z,11.40
2023-02-15T13:26:27.596Z,12.57
2023-02-15T13:29:00.154Z,10.90
2023-02-15T13:31:33.468Z,10.37
2023-02-15T13:34:22.013Z,9.53
2023-02-15T13:36:59.158Z,9.83
2023-02-15T13:39:45.359Z,9.00
2023-02-15T13:42:22.340Z,12.20
2023-02-15T13:44:54.852Z,8.50
2023-02-15T13:47:24.457Z,10.10
2023-02-15T13:50:23.029Z,13.67
2023-02-15T13:53:03.485Z,9.20
2023-02-15T13:55:47.882Z,11.50
2023-02-15T13:58:17.571Z,8.73
2023-02-15T14:01:06.702Z,8.93
2023-02-15T14:03:45.533Z,9.67
2023-02-15T14:06:30.656Z,7.53
2023-02-15T14:09:09.042Z,9.13
2023-02-15T14:11:41.279Z,10.40
2023-02-15T14:14:28.061Z,10.80
2023-02-15T14:17:29.961Z,11.03
2023-02-15T14:20:03.894Z,18.00
2023-02-15T14:22:33.421Z,10.77
2023-02-15T14:25:27.213Z,9.96
2023-02-15T14:28:15.631Z,10.33
2023-02-15T14:30:50.966Z,11.00
2023-02-15T14:33:26.813Z,12.77
2023-02-15T14:35:53.511Z,12.77
2023-02-15T14:38:22.949Z,11.00
2023-02-15T14:41:04.693Z,9.93
2023-02-15T14:43:54.241Z,11.03
2023-02-15T14:46:47.669Z,9.10
2023-02-15T14:49:18.124Z,10.17
2023-02-15T14:51:44.816Z,8.07
2023-02-15T14:54:34.290Z,9.03
2023-02-15T14:57:04.007Z,8.43
2023-02-15T14:59:33.595Z,10.27
2023-02-15T15:02:05.643Z,10.07
2023-02-15T15:04:36.953Z,11.03
2023-02-15T15:07:39.970Z,12.50
2023-02-15T15:10:31.487Z,11.40
2023-02-15T15:12:58.574Z,13.03
2023-02-15T15:15:28.233Z,15.40
2023-02-15T15:18:06.831Z,16.23
2023-02-15T15:20:46.962Z,17.63
2023-02-15T15:23:16.486Z,27.37
2023-02-15T15:25:55.026Z,20.40
2023-02-15T15:28:33.819Z,36.23
2023-02-15T15:31:04.833Z,39.70
2023-02-15T15:33:48.113Z,80.43
2023-02-15T15:36:17.712Z,125.60
2023-02-15T15:39:22.284Z,64.37
2023-02-15T15:42:10.672Z,126.03
2023-02-15T15:45:02.054Z,74.60
2023-02-15T15:47:53.415Z,84.47
2023-02-15T15:50:25.509Z,67.60
2023-02-15T15:52:55.262Z,66.47
2023-02-15T15:55:24.050Z,44.53
2023-02-15T15:57:53.512Z,40.43
2023-02-15T16:00:36.787Z,47.53
2023-02-15T16:03:03.736Z,25.93
2023-02-15T16:05:39.697Z,50.70
2023-02-15T16:08:06.716Z,28.80
2023-02-15T16:10:35.004Z,57.23
2023-02-15T16:13:02.792Z,51.90
2023-02-15T16:15:29.413Z,27.33
2023-02-15T16:17:57.845Z,29.57
2023-02-15T16:20:25.670Z,20.27
2023-02-15T16:23:34.171Z,41.23
2023-02-15T16:26:34.862Z,39.97
2023-02-15T16:29:02.577Z,34.47
2023-02-15T16:31:29.252Z,37.47
2023-02-15T16:33:56.358Z,21.80
2023-02-15T16:36:25.312Z,39.93
2023-02-15T16:38:51.842Z,34.43
2023-02-15T16:41:31.404Z,26.23
2023-02-15T16:44:02.432Z,26.77
2023-02-15T16:46:32.175Z,22.60
2023-02-15T16:49:02.620Z,21.43
2023-02-15T16:51:31.363Z,19.60
2023-02-15T16:54:07.306Z,35.67
2023-02-15T16:56:34.494Z,25.40
2023-02-15T16:59:03.524Z,27.07
2023-02-15T17:01:32.726Z,32.80
2023-02-15T17:04:27.828Z,31.70
2023-02-15T17:07:17.088Z,38.03
2023-02-15T17:09:57.552Z,20.37
2023-02-15T17:12:56.275Z,30.43
2023-02-15T17:15:31.494Z,26.07
2023-02-15T17:18:01.341Z,28.33
2023-02-15T17:20:28.723Z,26.80
2023-02-15T17:22:55.672Z,28.17
2023-02-15T17:25:27.632Z,28.73
2023-02-15T17:27:56.359Z,30.63
2023-02-15T17:30:32.517Z,47.90
2023-02-15T17:33:03.862Z,54.43
2023-02-15T17:35:32.238Z,39.33
2023-02-15T17:38:11.855Z,39.13
2023-02-15T17:40:38.475Z,47.73
2023-02-15T17:43:05.046Z,46.83
2023-02-15T17:45:37.629Z,46.37
2023-02-15T17:48:05.915Z,51.00
2023-02-15T17:50:33.260Z,55.27
2023-02-15T17:53:02.002Z,52.43
2023-02-15T17:55:43.035Z,37.27
2023-02-15T17:58:14.796Z,59.53
2023-02-15T18:01:11.564Z,57.90
2023-02-15T18:04:05.509Z,51.70
2023-02-15T18:06:51.178Z,53.37
2023-02-15T18:09:38.352Z,49.93
2023-02-15T18:12:22.989Z,32.20
2023-02-15T18:14:50.513Z,46.30
2023-02-15T18:17:18.234Z,53.53
2023-02-15T18:19:46.013Z,43.67
2023-02-15T18:22:14.254Z,51.17
2023-02-15T18:24:40.822Z,101.17
2023-02-15T18:27:07.580Z,50.63
2023-02-15T18:29:34.191Z,72.63
2023-02-15T18:32:01.483Z,41.43
2023-02-15T18:34:42.200Z,26.47
2023-02-15T18:37:15.452Z,34.20
2023-02-15T18:39:54.420Z,47.93
2023-02-15T18:42:24.228Z,46.03
2023-02-15T18:44:54.816Z,61.57
2023-02-15T18:47:21.391Z,37.73
2023-02-15T18:49:48.161Z,43.40
2023-02-15T18:52:17.226Z,40.37
2023-02-15T18:54:44.853Z,41.47
2023-02-15T18:57:14.208Z,110.93
2023-02-15T18:59:40.870Z,113.90
2023-02-15T19:02:17.016Z,68.37
2023-02-15T19:04:45.434Z,57.42
2023-02-15T19:07:31.697Z,60.73
2023-02-15T19:09:59.437Z,42.27
2023-02-15T19:12:27.813Z,71.60
2023-02-15T19:14:56.014Z,74.00
2023-02-15T19:17:23.769Z,64.97
2023-02-15T19:19:52.178Z,39.17
2023-02-15T19:22:29.680Z,84.83
2023-02-15T19:24:59.071Z,43.63
2023-02-15T19:27:31.689Z,70.90
2023-02-15T19:29:59.755Z,38.13
2023-02-15T19:32:27.794Z,51.73
2023-02-15T19:34:54.429Z,53.93
2023-02-15T19:37:28.658Z,22.33
2023-02-15T19:39:56.290Z,26.40
2023-02-15T19:42:24.079Z,24.80
2023-02-15T19:44:51.566Z,29.23
2023-02-15T19:47:18.632Z,20.03
2023-02-15T19:49:45.240Z,18.67
2023-02-15T19:52:24.335Z,23.17
2023-02-15T19:54:53.463Z,22.13
2023-02-15T19:57:20.630Z,22.83
2023-02-15T19:59:47.273Z,27.77
2023-02-15T20:02:15.663Z,38.07
2023-02-15T20:04:42.281Z,26.47
2023-02-15T20:07:17.346Z,32.13
2023-02-15T20:09:44.057Z,34.10
2023-02-15T20:12:20.566Z,27.03
2023-02-15T20:14:47.141Z,35.80
2023-02-15T20:17:13.668Z,24.80
2023-02-15T20:19:41.625Z,25.27
2023-02-15T20:22:27.622Z,27.87
2023-02-15T20:24:56.979Z,21.40
2023-02-15T20:27:24.242Z,26.57
2023-02-15T20:29:51.164Z,19.80
2023-02-15T20:32:17.988Z,21.93
2023-02-15T20:34:44.606Z,25.00
2023-02-15T20:37:26.466Z,19.57
2023-02-15T20:39:53.097Z,28.43
2023-02-15T20:42:20.441Z,22.43
2023-02-15T20:44:47.337Z,25.20
2023-02-15T20:47:14.004Z,24.17
2023-02-15T20:49:40.625Z,19.17
2023-02-15T20:52:19.574Z,17.27
2023-02-15T20:54:46.199Z,23.03
2023-02-15T20:57:12.999Z,26.73
2023-02-15T20:59:40.477Z,21.53
2023-02-15T21:02:23.589Z,25.37
2023-02-15T21:04:50.457Z,25.93
2023-02-15T21:07:19.049Z,24.33
2023-02-15T21:09:46.200Z,24.00
2023-02-15T21:12:15.199Z,23.53
2023-02-15T21:14:41.888Z,20.90
2023-02-15T21:17:12.004Z,21.07
2023-02-15T21:19:40.940Z,23.50
2023-02-15T21:22:11.547Z,23.07
2023-02-15T21:24:38.194Z,20.87
2023-02-15T21:27:07.184Z,24.53
2023-02-15T21:29:33.909Z,23.20
2023-02-15T21:32:02.449Z,19.40
2023-02-15T21:34:29.194Z,19.70
2023-02-15T21:36:55.936Z,19.50
2023-02-15T21:39:24.989Z,19.10
2023-02-15T21:42:11.617Z,17.70
2023-02-15T21:44:56.883Z,16.10
2023-02-15T21:47:47.825Z,22.73
2023-02-15T21:50:39.592Z,19.47
2023-02-15T21:53:07.515Z,20.33
2023-02-15T21:55:34.140Z,25.00
2023-02-15T21:58:01.429Z,22.80
2023-02-15T22:00:28.745Z,22.77
2023-02-15T22:02:58.270Z,19.33
2023-02-15T22:05:31.333Z,20.20
2023-02-15T22:07:58.378Z,18.07
2023-02-15T22:10:30.698Z,19.77
2023-02-15T22:12:57.706Z,16.87
2023-02-15T22:15:26.672Z,18.30
2023-02-15T22:17:53.636Z,17.80
2023-02-15T22:20:22.693Z,24.80
2023-02-15T22:22:50.629Z,17.97
2023-02-15T22:25:20.032Z,17.50
2023-02-15T22:27:47.464Z,22.70
2023-02-15T22:30:22.645Z,24.20
2023-02-15T22:32:49.910Z,19.20
2023-02-15T22:35:22.936Z,18.83
2023-02-15T22:37:49.516Z,19.13
2023-02-15T22:40:31.259Z,28.50
2023-02-15T22:43:00.371Z,21.17
2023-02-15T22:45:29.997Z,26.00
2023-02-15T22:47:58.918Z,21.33
2023-02-15T22:50:27.867Z,21.90
2023-02-15T22:52:54.714Z,28.47
2023-02-15T22:55:23.994Z,35.73
2023-02-15T22:57:53.233Z,34.57
2023-02-15T23:00:25.263Z,32.23
2023-02-15T23:02:53.024Z,33.93
2023-02-15T23:05:30.710Z,28.37
2023-02-15T23:07:58.018Z,24.20
2023-02-15T23:10:26.265Z,41.97
2023-02-15T23:13:16.894Z,33.93
2023-02-15T23:15:45.755Z,39.33
2023-02-15T23:18:32.504Z,26.53
2023-02-15T23:21:02.453Z,26.57
2023-02-15T23:23:31.201Z,27.70
2023-02-15T23:25:57.994Z,35.47
2023-02-15T23:28:28.032Z,25.63
2023-02-15T23:30:54.992Z,30.33
2023-02-15T23:33:23.581Z,28.30
2023-02-15T23:35:50.489Z,31.70
2023-02-15T23:38:23.398Z,34.83
2023-02-15T23:41:21.926Z,34.53
2023-02-15T23:44:02.833Z,36.27
2023-02-15T23:46:49.092Z,37.77
2023-02-15T23:49:18.590Z,37.60
2023-02-15T23:51:54.324Z,35.13
2023-02-15T23:54:25.304Z,34.27
2023-02-15T23:56:57.690Z,37.67
2023-02-15T23:59:27.079Z,32.10
